Time;durP1;ratioP1;P1;durP2;ratioP2;P2;SDS_P1;SDS_P2;PMS_P1;PMS_P2;Temp;Humidity;BMP_temperature;BMP_pressure;BME280_temperature;BME280_humidity;BME280_pressure;Samples;Min_cycle;Max_cycle;Signal;HPM_P1;HPM_P2
2023/06/28 00:01:09;;;;;;;3.40;2.77;;;20.00;46.50;;;;;;5031840;28;20447;-58
2023/06/28 00:03:35;;;;;;;3.10;2.40;;;20.00;46.60;;;;;;5031994;28;20650;-56
2023/06/28 00:06:01;;;;;;;4.43;3.20;;;20.00;46.90;;;;;;5032235;28;20236;-55
2023/06/28 00:08:27;;;;;;;4.67;2.97;;;20.00;47.50;;;;;;5032067;28;20423;-55
2023/06/28 00:10:53;;;;;;;5.17;2.90;;;20.10;47.10;;;;;;5031619;28;20173;-56
2023/06/28 00:13:19;;;;;;;4.73;3.30;;;20.10;47.20;;;;;;5031831;28;20201;-54
2023/06/28 00:15:45;;;;;;;5.82;4.05;;;20.10;46.80;;;;;;5031928;28;20676;-57
2023/06/28 00:18:11;;;;;;;3.85;2.88;;;20.00;46.80;;;;;;5031750;28;20166;-56
2023/06/28 00:20:40;;;;;;;6.03;3.58;;;20.00;47.00;;;;;;5030457;28;20193;-56
2023/06/28 00:23:07;;;;;;;3.45;3.08;;;20.10;47.20;;;;;;5031752;28;20190;-56
2023/06/28 00:25:32;;;;;;;5.70;3.50;;;20.10;46.90;;;;;;5030542;28;20709;-57
2023/06/28 00:27:59;;;;;;;3.83;3.33;;;20.10;47.20;;;;;;5031290;28;20453;-56
2023/06/28 00:30:25;;;;;;;6.10;3.43;;;20.10;47.10;;;;;;5031591;28;20400;-53
2023/06/28 00:32:52;;;;;;;9.60;3.00;;;20.20;47.10;;;;;;5034931;28;20288;-55
2023/06/28 00:35:18;;;;;;;3.65;2.95;;;20.20;47.10;;;;;;5035797;28;20204;-57
2023/06/28 00:37:43;;;;;;;4.00;2.87;;;20.20;47.20;;;;;;5035572;28;20197;-54
2023/06/28 00:40:09;;;;;;;9.30;3.30;;;20.20;47.10;;;;;;5035444;28;20412;-54
2023/06/28 00:42:35;;;;;;;4.60;3.63;;;20.20;47.10;;;;;;5035373;28;20186;-53
2023/06/28 00:45:01;;;;;;;3.50;3.20;;;20.30;47.30;;;;;;5035475;28;20704;-57
2023/06/28 00:47:28;;;;;;;6.03;3.17;;;20.30;46.90;;;;;;5035360;28;20440;-55
2023/06/28 00:49:55;;;;;;;4.13;3.00;;;20.30;46.60;;;;;;5035217;28;20172;-56
2023/06/28 00:52:22;;;;;;;3.60;2.90;;;20.30;46.90;;;;;;5035267;28;20292;-54
2023/06/28 00:54:47;;;;;;;3.45;2.97;;;20.20;46.70;;;;;;5035237;28;20626;-55
2023/06/28 00:57:14;;;;;;;3.87;3.17;;;20.20;46.60;;;;;;5035131;28;20258;-57
2023/06/28 00:59:40;;;;;;;5.00;2.83;;;20.20;46.80;;;;;;5034927;28;20264;-53
2023/06/28 01:02:06;;;;;;;6.73;3.20;;;20.20;46.80;;;;;;5035241;28;20475;-56
2023/06/28 01:04:33;;;;;;;6.20;2.97;;;20.10;46.60;;;;;;5035109;28;20829;-54
2023/06/28 01:07:00;;;;;;;4.38;3.35;;;20.10;46.50;;;;;;5034946;28;20424;-54
2023/06/28 01:09:28;;;;;;;7.57;3.50;;;20.10;46.40;;;;;;5034362;28;20178;-56
2023/06/28 01:11:55;;;;;;;6.20;3.00;;;20.10;46.80;;;;;;5034424;28;20202;-56
2023/06/28 01:14:23;;;;;;;16.27;4.40;;;20.10;46.80;;;;;;5034792;28;20170;-54
2023/06/28 01:16:54;;;;;;;4.75;3.78;;;20.10;46.30;;;;;;5033349;28;20428;-56
2023/06/28 01:19:24;;;;;;;4.05;3.15;;;20.00;47.10;;;;;;5034640;28;20174;-54
2023/06/28 01:21:52;;;;;;;4.60;2.90;;;20.00;46.50;;;;;;5034485;28;20677;-54
2023/06/28 01:24:20;;;;;;;3.70;3.25;;;20.00;46.60;;;;;;5034563;28;20186;-56
2023/06/28 01:26:47;;;;;;;7.70;2.93;;;19.90;46.50;;;;;;5034480;28;20197;-55
2023/06/28 01:29:13;;;;;;;9.52;3.45;;;19.90;46.80;;;;;;5034212;28;20451;-57
2023/06/28 01:31:40;;;;;;;5.20;4.07;;;19.90;46.80;;;;;;5034207;28;20201;-56
2023/06/28 01:34:05;;;;;;;3.60;2.65;;;19.90;47.00;;;;;;5034574;28;20413;-55
2023/06/28 01:36:32;;;;;;;5.93;3.40;;;19.90;46.90;;;;;;5034347;28;20181;-54
2023/06/28 01:38:58;;;;;;;3.53;2.73;;;19.90;47.20;;;;;;5034405;28;20168;-56
2023/06/28 01:41:26;;;;;;;7.20;3.40;;;19.90;47.10;;;;;;5033903;28;20431;-56
2023/06/28 01:43:52;;;;;;;4.28;3.75;;;19.90;47.30;;;;;;5033100;28;20408;-54
2023/06/28 01:46:18;;;;;;;6.43;3.20;;;19.90;47.10;;;;;;5034370;28;20578;-55
2023/06/28 01:48:44;;;;;;;5.17;3.00;;;19.90;46.80;;;;;;5034110;28;20408;-55
2023/06/28 01:51:09;;;;;;;7.07;3.20;;;19.90;46.70;;;;;;5033789;28;20428;-55
2023/06/28 01:53:35;;;;;;;4.70;2.93;;;19.90;46.80;;;;;;5034123;28;20463;-54
2023/06/28 01:56:01;;;;;;;4.87;3.70;;;19.80;46.80;;;;;;5033956;28;20177;-57
2023/06/28 01:58:27;;;;;;;6.10;3.13;;;19.90;46.90;;;;;;5033988;28;20428;-54
2023/06/28 02:00:52;;;;;;;4.60;2.67;;;19.80;46.60;;;;;;5033876;28;20174;-54
2023/06/28 02:03:18;;;;;;;5.53;3.10;;;19.80;46.80;;;;;;5034022;28;20178;-56
2023/06/28 02:05:44;;;;;;;7.13;4.03;;;19.80;46.60;;;;;;5033805;28;20245;-56
2023/06/28 02:08:10;;;;;;;5.87;3.67;;;19.80;46.70;;;;;;5033933;28;20225;-53
2023/06/28 02:10:36;;;;;;;3.30;2.80;;;19.80;46.90;;;;;;5033431;28;21055;-56
2023/06/28 02:13:02;;;;;;;4.20;3.57;;;19.80;46.80;;;;;;5033599;28;20483;-54
2023/06/28 02:15:27;;;;;;;7.47;3.00;;;19.80;46.90;;;;;;5033945;28;20308;-56
2023/06/28 02:17:56;;;;;;;11.43;3.37;;;19.90;47.10;;;;;;5033679;28;20193;-56
2023/06/28 02:20:22;;;;;;;6.93;3.10;;;19.90;47.00;;;;;;5032214;28;20198;-54
2023/06/28 02:22:48;;;;;;;4.70;2.95;;;19.90;47.00;;;;;;5033484;28;20940;-54
2023/06/28 02:25:13;;;;;;;4.23;3.40;;;19.90;47.20;;;;;;5033387;28;20188;-56
2023/06/28 02:27:40;;;;;;;7.77;3.33;;;19.90;47.00;;;;;;5033598;28;20253;-54
2023/06/28 02:30:07;;;;;;;6.53;3.10;;;19.90;47.10;;;;;;5033391;28;20186;-54
2023/06/28 02:32:32;;;;;;;6.13;3.90;;;19.90;47.00;;;;;;5033302;28;20873;-57
2023/06/28 02:34:58;;;;;;;4.40;3.20;;;19.90;47.30;;;;;;5033335;28;20208;-55
2023/06/28 02:37:25;;;;;;;4.53;3.03;;;19.90;47.30;;;;;;5033310;28;20237;-57
2023/06/28 02:39:50;;;;;;;7.73;3.23;;;19.90;46.90;;;;;;5032912;28;20496;-57
2023/06/28 02:42:16;;;;;;;13.67;4.20;;;19.80;46.30;;;;;;5033128;28;20858;-55
2023/06/28 02:44:42;;;;;;;8.43;3.33;;;19.80;46.60;;;;;;5033205;28;20177;-57
2023/06/28 02:47:07;;;;;;;7.63;3.30;;;19.80;46.90;;;;;;5033147;28;20200;-54
2023/06/28 02:49:33;;;;;;;7.63;3.00;;;19.80;46.70;;;;;;5032861;28;20182;-54
2023/06/28 02:51:59;;;;;;;3.50;2.40;;;19.90;47.00;;;;;;5032907;28;20204;-56
2023/06/28 02:54:24;;;;;;;5.20;2.47;;;19.80;46.80;;;;;;5032990;28;20184;-54
2023/06/28 02:56:50;;;;;;;5.37;3.53;;;19.80;46.70;;;;;;5032898;28;20166;-54
2023/06/28 02:59:16;;;;;;;7.17;3.00;;;19.80;46.70;;;;;;5032556;28;20227;-55
2023/06/28 03:01:41;;;;;;;6.73;3.20;;;19.80;46.70;;;;;;5032908;28;20190;-55
2023/06/28 03:04:07;;;;;;;6.60;3.40;;;19.80;46.70;;;;;;5032804;28;20167;-55
2023/06/28 03:06:35;;;;;;;4.00;2.90;;;19.80;46.60;;;;;;5032722;28;20169;-57
2023/06/28 03:09:00;;;;;;;4.93;2.80;;;19.80;46.60;;;;;;5032571;28;20170;-55
2023/06/28 03:11:26;;;;;;;6.03;3.03;;;19.80;46.70;;;;;;5032378;28;20202;-55
2023/06/28 03:13:52;;;;;;;3.70;3.10;;;19.80;46.80;;;;;;5032674;28;20285;-57
2023/06/28 03:16:18;;;;;;;6.67;3.30;;;19.70;46.90;;;;;;5032583;28;20411;-55
2023/06/28 03:18:43;;;;;;;6.67;3.10;;;19.80;46.90;;;;;;5032854;28;20479;-54
2023/06/28 03:21:09;;;;;;;5.40;3.57;;;19.80;46.90;;;;;;5032182;28;20201;-57
2023/06/28 03:23:36;;;;;;;11.57;4.10;;;19.70;47.00;;;;;;5032388;28;20178;-54
2023/06/28 03:26:02;;;;;;;5.97;3.22;;;19.70;46.90;;;;;;5032391;28;20664;-58
2023/06/28 03:28:27;;;;;;;4.73;3.53;;;19.70;47.00;;;;;;5032353;28;20170;-56
2023/06/28 03:30:53;;;;;;;5.30;3.40;;;19.70;46.70;;;;;;5032182;28;20170;-55
2023/06/28 03:33:19;;;;;;;5.45;3.10;;;19.70;47.00;;;;;;5032132;28;20681;-55
2023/06/28 03:35:45;;;;;;;6.67;3.70;;;19.70;46.90;;;;;;5032309;28;20178;-57
2023/06/28 03:38:11;;;;;;;8.23;3.10;;;19.70;46.60;;;;;;5032206;28;20174;-55
2023/06/28 03:40:36;;;;;;;8.30;3.07;;;19.70;46.70;;;;;;5031942;28;20162;-57
2023/06/28 03:43:02;;;;;;;5.47;3.20;;;19.70;47.00;;;;;;5032160;28;20252;-55
2023/06/28 03:45:29;;;;;;;9.10;3.50;;;19.60;46.90;;;;;;5030903;28;20542;-55
2023/06/28 03:47:54;;;;;;;6.22;3.40;;;19.60;47.10;;;;;;5032244;28;20899;-57
2023/06/28 03:50:20;;;;;;;5.33;3.30;;;19.60;47.00;;;;;;5031944;28;20272;-55
2023/06/28 03:52:46;;;;;;;4.97;3.10;;;19.60;46.90;;;;;;5031831;28;20448;-58
2023/06/28 03:55:12;;;;;;;6.03;3.87;;;19.60;46.90;;;;;;5032041;28;20415;-56
2023/06/28 03:57:38;;;;;;;4.22;3.17;;;19.60;47.10;;;;;;5032123;28;20170;-55
2023/06/28 04:00:08;;;;;;;11.17;3.67;;;19.70;47.30;;;;;;5031822;28;20166;-55
2023/06/28 04:02:34;;;;;;;5.00;3.53;;;19.70;47.70;;;;;;5030799;28;20281;-55
2023/06/28 04:04:59;;;;;;;11.77;3.90;;;19.70;47.70;;;;;;5032075;28;20212;-55
2023/06/28 04:07:26;;;;;;;6.83;3.07;;;19.80;47.60;;;;;;5034992;28;20533;-55
2023/06/28 04:09:51;;;;;;;5.80;3.75;;;19.80;47.50;;;;;;5035826;28;20186;-57
2023/06/28 04:12:17;;;;;;;5.27;3.57;;;19.90;47.50;;;;;;5035751;28;20219;-56
2023/06/28 04:14:43;;;;;;;7.33;3.67;;;19.90;47.20;;;;;;5036055;28;20200;-53
2023/06/28 04:17:09;;;;;;;5.60;3.20;;;19.90;46.90;;;;;;5036053;28;20400;-58
2023/06/28 04:19:34;;;;;;;10.00;3.60;;;19.90;46.70;;;;;;5035659;28;20228;-57
2023/06/28 04:22:00;;;;;;;5.30;3.63;;;19.90;46.90;;;;;;5035648;28;20190;-55
2023/06/28 04:24:26;;;;;;;5.57;3.70;;;19.90;46.90;;;;;;5048065;23;20328;-54
2023/06/28 04:26:52;;;;;;;9.90;3.50;;;19.90;46.60;;;;;;5035654;28;20591;-57
2023/06/28 04:29:17;;;;;;;7.40;3.80;;;19.90;46.50;;;;;;5035554;28;20203;-55
2023/06/28 04:31:43;;;;;;;6.03;3.70;;;19.90;46.60;;;;;;5035581;28;20349;-54
2023/06/28 04:34:09;;;;;;;9.67;4.47;;;19.90;46.40;;;;;;5035597;28;20261;-56
2023/06/28 04:36:35;;;;;;;5.57;3.63;;;19.90;46.50;;;;;;5035701;28;20174;-56
2023/06/28 04:39:03;;;;;;;7.33;3.37;;;19.90;46.60;;;;;;5035647;28;20316;-55
2023/06/28 04:41:29;;;;;;;12.05;3.53;;;19.90;46.60;;;;;;5035516;28;20240;-56
2023/06/28 04:43:57;;;;;;;6.77;3.73;;;19.90;46.50;;;;;;5035427;28;20194;-56
2023/06/28 04:46:28;;;;;;;8.38;3.47;;;19.90;46.30;;;;;;5035249;28;20404;-54
2023/06/28 04:48:55;;;;;;;20.15;4.10;;;19.90;46.60;;;;;;5035643;28;20224;-54
2023/06/28 04:51:21;;;;;;;6.20;3.88;;;19.90;46.10;;;;;;5035141;28;20560;-56
2023/06/28 04:53:48;;;;;;;5.37;3.53;;;19.90;46.50;;;;;;5035135;28;20217;-55
2023/06/28 04:56:15;;;;;;;6.78;3.25;;;20.00;46.60;;;;;;5035418;28;20247;-54
2023/06/28 04:58:41;;;;;;;9.98;3.63;;;20.00;46.50;;;;;;5035388;28;20182;-56
2023/06/28 05:01:07;;;;;;;8.95;3.67;;;20.10;47.00;;;;;;5034956;28;20680;-54
2023/06/28 05:03:40;;;;;;;7.03;3.60;;;20.10;46.20;;;;;;5035000;28;20212;-53
2023/06/28 05:06:06;;;;;;;4.50;3.50;;;20.20;46.50;;;;;;5034996;28;20170;-57
2023/06/28 05:08:32;;;;;;;5.20;3.50;;;20.20;46.50;;;;;;5034949;28;20174;-54
2023/06/28 05:10:59;;;;;;;7.03;4.45;;;20.30;46.60;;;;;;5034779;28;20411;-54
2023/06/28 05:13:25;;;;;;;7.63;3.58;;;20.40;46.40;;;;;;5034724;28;20209;-56
2023/06/28 05:15:51;;;;;;;6.57;4.13;;;20.40;46.00;;;;;;5035164;28;20261;-56
2023/06/28 05:18:20;;;;;;;8.60;4.37;;;20.50;46.30;;;;;;5034431;28;20259;-54
2023/06/28 05:20:46;;;;;;;6.35;3.60;;;20.50;45.90;;;;;;5034551;28;20412;-54
2023/06/28 05:23:17;;;;;;;7.20;4.37;;;20.50;46.00;;;;;;5034748;28;20182;-56
2023/06/28 05:25:44;;;;;;;5.07;3.40;;;20.50;45.70;;;;;;5034617;28;20785;-54
2023/06/28 05:28:12;;;;;;;7.20;3.95;;;20.50;45.80;;;;;;5034579;28;20182;-54
2023/06/28 05:30:38;;;;;;;9.43;3.47;;;20.50;45.90;;;;;;5034373;28;20232;-56
2023/06/28 05:33:04;;;;;;;8.70;3.30;;;20.60;45.60;;;;;;5034498;28;20456;-54
2023/06/28 05:35:31;;;;;;;12.20;4.43;;;20.70;46.00;;;;;;5034361;28;20198;-56
2023/06/28 05:38:01;;;;;;;8.70;3.85;;;20.70;46.00;;;;;;5034433;28;20401;-56
2023/06/28 05:40:28;;;;;;;7.83;3.60;;;20.70;45.30;;;;;;5034092;28;20248;-54
2023/06/28 05:42:54;;;;;;;7.10;3.77;;;20.70;45.60;;;;;;5034294;28;20413;-54
2023/06/28 05:45:23;;;;;;;9.27;3.40;;;20.60;45.00;;;;;;5034184;28;20429;-56
2023/06/28 05:47:49;;;;;;;5.93;3.10;;;20.60;44.80;;;;;;5034248;28;20904;-53
2023/06/28 05:50:16;;;;;;;13.43;4.10;;;20.60;45.40;;;;;;5034062;28;20189;-54
2023/06/28 05:52:44;;;;;;;7.35;3.25;;;20.50;45.60;;;;;;5034125;28;20455;-56
2023/06/28 05:55:09;;;;;;;6.80;3.30;;;20.60;46.20;;;;;;5034005;28;20225;-54
2023/06/28 05:57:35;;;;;;;7.23;4.70;;;20.60;45.50;;;;;;5034295;28;20429;-56
2023/06/28 06:00:06;;;;;;;6.97;4.20;;;20.60;45.50;;;;;;5033782;28;20173;-54
2023/06/28 06:02:31;;;;;;;8.53;3.43;;;20.70;46.10;;;;;;5034050;28;20772;-54
2023/06/28 06:05:01;;;;;;;10.70;4.20;;;20.70;45.80;;;;;;5033823;28;20425;-56
2023/06/28 06:07:27;;;;;;;5.97;3.40;;;20.80;45.60;;;;;;5033768;28;20900;-54
2023/06/28 06:09:54;;;;;;;9.13;3.90;;;20.80;45.90;;;;;;5033589;28;20872;-56
2023/06/28 06:12:20;;;;;;;9.97;4.53;;;20.90;46.30;;;;;;5033705;28;20474;-56
2023/06/28 06:14:50;;;;;;;13.37;3.83;;;20.90;45.90;;;;;;5033901;28;20485;-54
2023/06/28 06:17:19;;;;;;;8.63;3.97;;;21.00;45.10;;;;;;5033673;28;20940;-54
2023/06/28 06:19:45;;;;;;;14.38;4.13;;;21.00;45.00;;;;;;5033463;28;20408;-55
2023/06/28 06:22:11;;;;;;;11.07;4.47;;;21.00;45.30;;;;;;5033647;28;20188;-56
2023/06/28 06:24:37;;;;;;;11.10;4.43;;;21.10;45.60;;;;;;5033540;28;20219;-54
2023/06/28 06:27:06;;;;;;;9.63;4.07;;;21.20;45.20;;;;;;5033811;28;20491;-54
2023/06/28 06:29:31;;;;;;;5.83;3.23;;;21.30;45.70;;;;;;5032516;28;20416;-56
2023/06/28 06:31:57;;;;;;;10.50;3.23;;;21.30;45.30;;;;;;5033656;28;20455;-54
2023/06/28 06:34:23;;;;;;;6.13;3.20;;;21.40;45.10;;;;;;5033341;28;20681;-53
2023/06/28 06:36:49;;;;;;;7.47;3.53;;;21.50;44.70;;;;;;5033526;28;20525;-56
2023/06/28 06:39:15;;;;;;;9.70;3.40;;;21.60;44.40;;;;;;5033364;28;20515;-56
2023/06/28 06:41:40;;;;;;;6.10;4.37;;;21.60;43.90;;;;;;5033307;28;20447;-56
2023/06/28 06:44:06;;;;;;;9.60;3.00;;;21.70;44.30;;;;;;5033125;28;20974;-54
2023/06/28 06:46:32;;;;;;;8.60;2.80;;;21.80;44.60;;;;;;5033202;28;20166;-56
2023/06/28 06:48:57;;;;;;;5.57;3.03;;;21.90;44.50;;;;;;5033041;28;20257;-53
2023/06/28 06:51:23;;;;;;;10.17;2.93;;;22.10;44.40;;;;;;5033088;28;20332;-55
2023/06/28 06:53:49;;;;;;;7.70;3.33;;;22.10;42.80;;;;;;5032950;28;20281;-56
2023/06/28 06:56:21;;;;;;;5.30;2.90;;;22.10;42.70;;;;;;5033011;28;20170;-53
2023/06/28 06:58:46;;;;;;;10.43;3.53;;;22.10;42.60;;;;;;5032874;28;20260;-56
2023/06/28 07:01:12;;;;;;;12.70;3.40;;;22.00;42.80;;;;;;5032678;28;20440;-53
2023/06/28 07:03:38;;;;;;;4.67;3.50;;;22.00;42.30;;;;;;5032675;28;20258;-53
2023/06/28 07:06:03;;;;;;;7.77;3.40;;;22.10;42.80;;;;;;5032783;28;20174;-56
2023/06/28 07:08:29;;;;;;;4.87;3.60;;;22.10;43.20;;;;;;5032728;28;20178;-55
2023/06/28 07:10:55;;;;;;;8.40;3.30;;;22.30;43.30;;;;;;5032505;28;20184;-55
2023/06/28 07:13:21;;;;;;;8.43;2.30;;;22.40;43.50;;;;;;5032550;28;20241;-55
2023/06/28 07:15:46;;;;;;;7.93;3.17;;;22.60;42.40;;;;;;5032663;28;20166;-54
2023/06/28 07:18:12;;;;;;;7.17;2.70;;;22.60;40.40;;;;;;5032439;28;20213;-54
2023/06/28 07:20:38;;;;;;;6.60;2.83;;;22.60;40.40;;;;;;5032342;28;20174;-55
2023/06/28 07:23:03;;;;;;;6.30;2.67;;;22.60;40.40;;;;;;5032603;28;20184;-54
2023/06/28 07:25:30;;;;;;;4.70;2.17;;;22.60;40.70;;;;;;5031093;28;20215;-57
2023/06/28 07:27:55;;;;;;;8.07;3.13;;;22.70;40.20;;;;;;5032734;28;20181;-55
2023/06/28 07:30:23;;;;;;;5.67;2.63;;;22.80;40.30;;;;;;5032271;28;20412;-55
2023/06/28 07:32:49;;;;;;;3.87;2.20;;;22.90;39.90;;;;;;5032206;28;20210;-56
2023/06/28 07:35:15;;;;;;;8.23;3.07;;;22.80;38.90;;;;;;5032483;28;21003;-56
2023/06/28 07:37:40;;;;;;;10.23;3.53;;;22.80;39.20;;;;;;5032284;28;20538;-55
2023/06/28 07:40:07;;;;;;;5.30;2.40;;;22.90;39.40;;;;;;5032310;28;20177;-55
2023/06/28 07:42:32;;;;;;;10.10;3.60;;;23.00;39.40;;;;;;5032238;28;20177;-57
2023/06/28 07:44:58;;;;;;;5.57;2.30;;;23.00;39.40;;;;;;5032241;28;20436;-55
2023/06/28 07:47:24;;;;;;;5.60;2.50;;;23.10;39.80;;;;;;5032247;28;20189;-54
2023/06/28 07:49:50;;;;;;;6.20;2.93;;;23.10;39.00;;;;;;5031931;28;20185;-57
2023/06/28 07:52:15;;;;;;;8.40;3.43;;;23.10;38.90;;;;;;5030791;28;20456;-54
2023/06/28 07:54:41;;;;;;;4.53;2.20;;;23.20;39.50;;;;;;5031988;28;20197;-54
2023/06/28 07:57:09;;;;;;;4.80;3.07;;;23.20;38.60;;;;;;5032312;28;20178;-57
2023/06/28 07:59:34;;;;;;;5.53;2.47;;;23.10;37.50;;;;;;5032125;28;20182;-54
2023/06/28 08:02:00;;;;;;;6.57;2.80;;;23.20;37.90;;;;;;5031906;28;20413;-53
2023/06/28 08:04:26;;;;;;;7.67;2.27;;;23.30;38.10;;;;;;5032184;28;20495;-57
2023/06/28 08:06:51;;;;;;;7.63;3.07;;;23.30;37.80;;;;;;5031958;28;20233;-55
2023/06/28 08:09:17;;;;;;;4.17;2.43;;;23.40;37.70;;;;;;5031911;28;20182;-55
2023/06/28 08:11:43;;;;;;;7.73;3.50;;;23.50;37.50;;;;;;5031904;28;20182;-54
2023/06/28 08:14:09;;;;;;;7.87;3.07;;;23.60;37.20;;;;;;5032172;28;20200;-57
2023/06/28 08:16:34;;;;;;;7.20;2.37;;;23.60;37.20;;;;;;5031861;28;20229;-54
2023/06/28 08:19:00;;;;;;;4.20;2.90;;;23.60;38.60;;;;;;5032098;28;20181;-54
2023/06/28 08:21:26;;;;;;;4.30;2.63;;;23.70;38.00;;;;;;5031601;28;20537;-57
2023/06/28 08:23:52;;;;;;;6.90;2.47;;;23.70;36.80;;;;;;5031887;28;20221;-54
2023/06/28 08:26:18;;;;;;;9.23;2.90;;;23.60;36.70;;;;;;5031795;28;20549;-54
2023/06/28 08:28:44;;;;;;;4.37;2.47;;;23.60;37.20;;;;;;5031675;28;20423;-56
2023/06/28 08:31:10;;;;;;;5.53;2.67;;;23.60;36.60;;;;;;5031790;28;20418;-56
2023/06/28 08:33:36;;;;;;;6.47;2.50;;;23.60;37.50;;;;;;5031574;28;20467;-54
2023/06/28 08:36:01;;;;;;;12.00;2.40;;;23.80;36.60;;;;;;5031733;28;20185;-55
2023/06/28 08:38:27;;;;;;;6.90;2.17;;;23.90;36.60;;;;;;5031643;28;20178;-57
2023/06/28 08:40:53;;;;;;;4.30;2.20;;;24.10;35.60;;;;;;5031527;28;20245;-55
2023/06/28 08:43:21;;;;;;;3.70;2.27;;;24.10;35.60;;;;;;5031625;28;20190;-57
2023/06/28 08:45:47;;;;;;;5.50;2.20;;;24.20;34.80;;;;;;5031481;28;20182;-57
2023/06/28 08:48:13;;;;;;;4.20;2.90;;;24.30;35.20;;;;;;5031628;28;20415;-53
2023/06/28 08:50:43;;;;;;;4.77;2.00;;;24.30;34.50;;;;;;5031571;28;20408;-54
2023/06/28 08:53:16;;;;;;;7.73;2.50;;;24.40;33.60;;;;;;5033700;28;20556;-56
2023/06/28 08:55:43;;;;;;;5.63;2.37;;;24.30;33.90;;;;;;5035339;28;20417;-55
2023/06/28 08:58:11;;;;;;;9.80;2.80;;;24.20;34.80;;;;;;5035215;28;20432;-55
2023/06/28 09:00:37;;;;;;;7.10;3.00;;;24.20;33.50;;;;;;5034936;28;20421;-56
2023/06/28 09:03:03;;;;;;;8.17;3.20;;;24.20;34.90;;;;;;5035411;28;20416;-54
2023/06/28 09:05:30;;;;;;;8.33;3.03;;;24.30;35.80;;;;;;5034959;28;20475;-57
2023/06/28 09:07:57;;;;;;;6.10;2.33;;;24.40;36.10;;;;;;5035278;28;20814;-57
2023/06/28 09:10:23;;;;;;;5.03;2.47;;;24.50;34.50;;;;;;5034737;28;20549;-54
2023/06/28 09:12:50;;;;;;;6.63;2.50;;;24.70;36.00;;;;;;5034790;28;20543;-57
2023/06/28 09:15:21;;;;;;;4.20;2.70;;;24.70;33.60;;;;;;5034712;28;20428;-57
2023/06/28 09:17:47;;;;;;;7.20;2.30;;;24.60;33.90;;;;;;5034943;28;20423;-54
2023/06/28 09:20:18;;;;;;;6.63;3.03;;;24.60;33.30;;;;;;5034587;28;20906;-57
2023/06/28 09:22:57;;;;;;;8.07;2.70;;;24.40;33.30;;;;;;5034911;28;20424;-54
2023/06/28 09:25:25;;;;;;;4.73;2.50;;;24.30;34.20;;;;;;5034467;28;20967;-54
2023/06/28 09:27:51;;;;;;;5.73;3.00;;;24.30;34.40;;;;;;5034854;28;20416;-57
2023/06/28 09:30:21;;;;;;;8.10;2.73;;;24.40;35.00;;;;;;5034392;28;20422;-56
2023/06/28 09:32:50;;;;;;;6.27;2.83;;;24.60;34.40;;;;;;5034558;28;20464;-55
2023/06/28 09:35:17;;;;;;;6.70;2.33;;;24.80;35.30;;;;;;5034410;28;20429;-57
2023/06/28 09:37:46;;;;;;;6.07;2.27;;;25.00;35.80;;;;;;5034460;28;20490;-54
2023/06/28 09:40:15;;;;;;;7.00;2.67;;;25.20;34.60;;;;;;5034376;28;20412;-54
2023/06/28 09:42:48;;;;;;;4.17;2.33;;;25.30;33.40;;;;;;5034586;28;20833;-54
2023/06/28 09:45:36;;;;;;;4.97;2.43;;;25.30;33.90;;;;;;5034348;28;20464;-57
2023/06/28 09:48:05;;;;;;;5.67;2.77;;;25.50;32.20;;;;;;5034597;28;20392;-55
2023/06/28 09:50:47;;;;;;;6.23;2.27;;;25.50;34.00;;;;;;5034198;28;20404;-54
2023/06/28 09:53:19;;;;;;;4.07;2.50;;;25.50;32.40;;;;;;5033978;28;20460;-54
2023/06/28 09:55:46;;;;;;;6.30;3.13;;;25.40;34.40;;;;;;5034122;28;20409;-55
2023/06/28 09:58:15;;;;;;;6.70;2.37;;;25.30;33.50;;;;;;5034106;28;20459;-57
2023/06/28 10:00:43;;;;;;;7.03;2.07;;;25.30;33.90;;;;;;5033902;28;20467;-54
2023/06/28 10:03:12;;;;;;;4.20;2.23;;;25.30;33.80;;;;;;5033601;28;20804;-54
2023/06/28 10:05:40;;;;;;;4.83;2.20;;;25.20;34.10;;;;;;5033566;28;20826;-57
2023/06/28 10:08:14;;;;;;;7.83;2.80;;;25.10;34.60;;;;;;5033945;28;20504;-54
2023/06/28 10:10:41;;;;;;;10.33;2.43;;;25.00;32.90;;;;;;5033926;28;20775;-54
2023/06/28 10:13:29;;;;;;;11.83;3.10;;;24.90;33.50;;;;;;5033839;28;20514;-56
2023/06/28 10:16:02;;;;;;;4.17;2.40;;;24.90;34.50;;;;;;5033779;28;20547;-54
2023/06/28 10:18:29;;;;;;;4.90;2.30;;;25.10;35.10;;;;;;5034021;28;20446;-54
2023/06/28 10:20:54;;;;;;;7.83;2.33;;;25.30;34.70;;;;;;5033403;28;20416;-56
2023/06/28 10:23:21;;;;;;;5.63;2.27;;;25.50;33.70;;;;;;5033635;28;20417;-53
2023/06/28 10:25:47;;;;;;;5.63;2.80;;;25.70;33.90;;;;;;5033574;28;20182;-54
2023/06/28 10:28:15;;;;;;;8.17;2.20;;;25.80;33.50;;;;;;5033428;28;20769;-56
2023/06/28 10:30:45;;;;;;;3.80;2.07;;;25.80;33.20;;;;;;5046889;22;20587;-55
2023/06/28 10:33:14;;;;;;;6.17;2.70;;;25.80;30.80;;;;;;5033406;28;20794;-54
2023/06/28 10:35:42;;;;;;;3.67;2.40;;;25.80;30.40;;;;;;5033404;28;20416;-57
2023/06/28 10:38:08;;;;;;;4.97;2.73;;;25.90;30.30;;;;;;5033431;28;20488;-54
2023/06/28 10:40:35;;;;;;;2.97;2.20;;;26.10;31.90;;;;;;5033194;28;20428;-54
2023/06/28 10:43:00;;;;;;;3.80;1.73;;;26.20;31.00;;;;;;5033202;28;20412;-57
2023/06/28 10:45:36;;;;;;;6.77;2.70;;;26.30;30.70;;;;;;5033267;28;20412;-57
2023/06/28 10:48:03;;;;;;;4.23;1.90;;;26.30;30.10;;;;;;5033160;28;20764;-55
2023/06/28 10:50:38;;;;;;;5.10;2.40;;;26.30;30.50;;;;;;5032916;28;20768;-57
2023/06/28 10:53:04;;;;;;;5.17;2.30;;;26.20;29.90;;;;;;5033115;28;20432;-57
2023/06/28 10:55:34;;;;;;;4.50;2.20;;;26.10;29.70;;;;;;5033204;28;20835;-54
2023/06/28 10:58:08;;;;;;;3.40;1.93;;;26.10;30.60;;;;;;5032950;28;20154;-54
2023/06/28 11:00:37;;;;;;;6.37;2.70;;;26.10;29.10;;;;;;5032619;28;20421;-57
2023/06/28 11:03:06;;;;;;;8.93;2.30;;;26.10;29.40;;;;;;5032969;28;20405;-54
2023/06/28 11:05:45;;;;;;;6.53;2.30;;;26.00;29.70;;;;;;5032912;28;20454;-57
2023/06/28 11:08:13;;;;;;;5.90;2.20;;;26.00;31.20;;;;;;5032857;28;20459;-54
2023/06/28 11:10:53;;;;;;;3.90;1.77;;;26.10;31.80;;;;;;5032768;28;20432;-54
2023/06/28 11:13:48;;;;;;;4.80;2.17;;;26.30;32.00;;;;;;5032732;28;20439;-56
2023/06/28 11:16:22;;;;;;;4.57;2.37;;;26.70;29.40;;;;;;5032422;28;20479;-56
2023/06/28 11:18:50;;;;;;;4.80;2.17;;;26.70;31.50;;;;;;5032845;28;20450;-56
2023/06/28 11:21:24;;;;;;;6.47;2.40;;;26.80;30.40;;;;;;5032580;28;20424;-54
2023/06/28 11:23:53;;;;;;;5.03;2.23;;;26.90;30.50;;;;;;5031350;28;20447;-54
2023/06/28 11:26:36;;;;;;;8.03;2.53;;;27.00;30.40;;;;;;5032491;28;21176;-56
2023/06/28 11:29:17;;;;;;;5.90;3.07;;;27.20;29.40;;;;;;5032574;28;20416;-57
2023/06/28 11:31:55;;;;;;;3.23;2.37;;;27.20;28.20;;;;;;5031801;28;20408;-55
2023/06/28 11:34:21;;;;;;;3.00;2.30;;;27.00;29.20;;;;;;5031760;28;20466;-54
2023/06/28 11:36:48;;;;;;;4.90;1.90;;;26.90;28.80;;;;;;5031701;28;20396;-57
2023/06/28 11:39:21;;;;;;;6.07;2.00;;;27.00;30.00;;;;;;5031308;28;20403;-54
2023/06/28 11:41:48;;;;;;;3.63;2.03;;;27.10;27.30;;;;;;5031471;28;20399;-56
2023/06/28 11:44:14;;;;;;;4.70;2.00;;;27.00;28.90;;;;;;5031434;28;20424;-54
2023/06/28 11:46:41;;;;;;;5.70;2.50;;;26.90;27.90;;;;;;5031474;28;20398;-54
2023/06/28 11:49:08;;;;;;;3.83;1.87;;;26.90;27.50;;;;;;5031628;28;20424;-54
2023/06/28 11:51:35;;;;;;;4.73;1.90;;;26.90;28.30;;;;;;5031680;28;20397;-55
2023/06/28 11:54:01;;;;;;;3.93;2.20;;;27.00;30.10;;;;;;5031318;28;20491;-54
2023/06/28 11:56:34;;;;;;;6.50;2.80;;;27.00;26.50;;;;;;5031313;28;20411;-53
2023/06/28 11:59:20;;;;;;;5.33;2.17;;;27.00;27.00;;;;;;5031255;28;20888;-56
2023/06/28 12:01:48;;;;;;;4.20;2.00;;;27.00;29.00;;;;;;5031258;28;20396;-57
2023/06/28 12:04:18;;;;;;;3.53;1.80;;;27.20;28.40;;;;;;5031176;28;20412;-55
2023/06/28 12:06:45;;;;;;;4.83;2.33;;;27.30;29.50;;;;;;5031246;28;20407;-57
2023/06/28 12:09:29;;;;;;;4.40;2.20;;;27.50;27.80;;;;;;5030873;28;20451;-56
2023/06/28 12:12:01;;;;;;;3.77;1.87;;;27.60;27.50;;;;;;5031274;28;20405;-55
2023/06/28 12:14:28;;;;;;;7.13;2.30;;;27.60;27.70;;;;;;5031235;28;20631;-56
2023/06/28 12:16:55;;;;;;;2.40;1.60;;;27.60;27.90;;;;;;5031438;28;20404;-54
2023/06/28 12:19:32;;;;;;;4.73;2.13;;;27.40;26.10;;;;;;5030740;28;20404;-55
2023/06/28 12:22:02;;;;;;;2.00;1.53;;;27.20;26.70;;;;;;5030970;28;20438;-57
2023/06/28 12:24:28;;;;;;;4.23;2.17;;;27.90;28.50;;;;;;5031250;28;20405;-54
2023/06/28 12:26:56;;;;;;;4.93;2.57;;;27.40;27.70;;;;;;5031166;28;20416;-54
2023/06/28 12:29:24;;;;;;;4.13;2.22;;;27.50;27.60;;;;;;4990990;28;1242069;-54
2023/06/28 12:31:52;;;;;;;3.77;1.80;;;27.80;28.70;;;;;;5035761;28;20470;-56
2023/06/28 12:34:23;;;;;;;5.83;2.07;;;28.00;27.80;;;;;;5036209;28;20488;-53
2023/06/28 12:36:56;;;;;;;5.73;1.80;;;28.20;26.90;;;;;;5035724;28;20842;-54
2023/06/28 12:39:26;;;;;;;4.53;1.90;;;28.30;26.60;;;;;;5035349;28;20420;-54
2023/06/28 12:42:05;;;;;;;3.30;1.60;;;28.40;25.80;;;;;;5034576;28;20942;-57
2023/06/28 12:44:46;;;;;;;9.43;1.80;;;28.40;23.50;;;;;;5035872;28;20399;-54
2023/06/28 12:47:12;;;;;;;4.77;1.63;;;28.30;25.20;;;;;;5035608;28;20419;-54